Time;durP1;ratioP1;P1;durP2;ratioP2;P2;SDS_P1;SDS_P2;PMS_P1;PMS_P2;Temp;Humidity;BMP_temperature;BMP_pressure;BME280_temperature;BME280_humidity;BME280_pressure;Samples;Min_cycle;Max_cycle;Signal;HPM_P1;HPM_P2
2021/04/24 00:00:16;;;;;;;9.40;4.60;;;4.70;99.90;;;;;;5013244;28;20201;-71
2021/04/24 00:02:43;;;;;;;15.33;7.50;;;4.70;99.90;;;;;;5024368;28;20193;-70
2021/04/24 00:05:15;;;;;;;9.40;6.53;;;4.60;99.90;;;;;;5022324;28;20486;-71
2021/04/24 00:07:40;;;;;;;8.63;5.67;;;4.60;99.90;;;;;;5022387;28;20497;-71
2021/04/24 00:10:07;;;;;;;9.13;5.30;;;4.50;99.90;;;;;;5023754;28;20462;-71
2021/04/24 00:12:32;;;;;;;8.30;5.00;;;4.50;99.90;;;;;;5017787;28;20271;-73
2021/04/24 00:14:58;;;;;;;10.10;5.70;;;4.50;99.90;;;;;;5024839;28;20568;-71
2021/04/24 00:17:24;;;;;;;9.47;4.10;;;4.50;99.90;;;;;;5021341;28;20670;-72
2021/04/24 00:19:50;;;;;;;5.30;4.07;;;4.40;99.90;;;;;;5022197;28;20622;-71
2021/04/24 00:22:16;;;;;;;6.07;4.20;;;4.40;99.90;;;;;;5019864;28;20425;-73
2021/04/24 00:24:41;;;;;;;8.90;4.47;;;4.40;99.90;;;;;;5015350;28;20211;-71
2021/04/24 00:27:07;;;;;;;11.43;4.10;;;4.30;99.90;;;;;;5017995;28;20442;-72
2021/04/24 00:29:34;;;;;;;3.57;3.27;;;4.30;99.90;;;;;;5019316;28;20209;-72
2021/04/24 00:32:00;;;;;;;3.50;3.20;;;4.20;99.90;;;;;;5020596;28;20200;-72
2021/04/24 00:34:26;;;;;;;6.10;3.93;;;4.20;99.90;;;;;;5011824;28;20514;-71
2021/04/24 00:36:51;;;;;;;8.70;4.63;;;4.20;99.90;;;;;;5020515;28;20469;-71
2021/04/24 00:39:17;;;;;;;6.27;3.03;;;4.10;99.90;;;;;;5012475;28;20208;-71
2021/04/24 00:41:42;;;;;;;7.63;4.60;;;4.10;99.90;;;;;;5008469;28;20182;-73
2021/04/24 00:44:08;;;;;;;6.20;3.23;;;4.10;99.90;;;;;;5019324;28;20323;-71
2021/04/24 00:46:33;;;;;;;4.80;3.77;;;4.00;99.90;;;;;;5021041;28;20242;-71
2021/04/24 00:48:59;;;;;;;5.83;3.13;;;3.90;99.90;;;;;;5016831;28;20203;-70
2021/04/24 00:51:24;;;;;;;4.50;3.27;;;3.90;99.90;;;;;;5021564;28;20198;-71
2021/04/24 00:53:50;;;;;;;8.03;3.57;;;3.90;99.90;;;;;;5014123;28;20195;-72
2021/04/24 00:56:15;;;;;;;7.37;4.20;;;3.90;99.90;;;;;;5016025;28;20184;-72
2021/04/24 00:58:41;;;;;;;14.63;3.83;;;3.80;99.90;;;;;;5017676;28;20237;-72
2021/04/24 01:01:07;;;;;;;6.67;3.53;;;3.80;99.90;;;;;;5021771;28;20661;-71
2021/04/24 01:03:32;;;;;;;10.00;4.10;;;3.80;99.90;;;;;;5021709;28;20377;-72
2021/04/24 01:05:59;;;;;;;16.67;4.50;;;3.80;99.90;;;;;;5020728;28;20185;-71
2021/04/24 01:08:24;;;;;;;8.07;3.03;;;3.70;99.90;;;;;;5022794;28;20196;-72
2021/04/24 01:10:50;;;;;;;4.93;4.43;;;3.70;99.90;;;;;;5021448;28;20897;-72
2021/04/24 01:13:16;;;;;;;5.07;3.57;;;3.60;99.90;;;;;;5021709;28;20178;-68
2021/04/24 01:15:43;;;;;;;6.43;3.33;;;3.60;99.90;;;;;;5020414;28;20465;-70
2021/04/24 01:18:09;;;;;;;7.80;4.37;;;3.60;99.90;;;;;;5020050;28;20433;-71
2021/04/24 01:20:35;;;;;;;8.93;3.30;;;3.60;99.90;;;;;;5017435;28;20538;-71
2021/04/24 01:23:03;;;;;;;3.43;3.10;;;3.50;99.90;;;;;;5018582;28;20614;-73
2021/04/24 01:25:29;;;;;;;10.17;4.07;;;3.50;99.90;;;;;;5009037;28;20439;-71
2021/04/24 01:27:56;;;;;;;17.43;4.40;;;3.50;99.90;;;;;;5006596;28;20530;-72
2021/04/24 01:30:25;;;;;;;5.80;3.63;;;3.40;99.90;;;;;;5004964;28;20221;-74
2021/04/24 01:32:51;;;;;;;9.77;4.37;;;3.40;99.90;;;;;;5003945;28;20444;-72
2021/04/24 01:35:20;;;;;;;9.77;5.00;;;3.40;99.90;;;;;;5018779;28;20465;-71
2021/04/24 01:37:46;;;;;;;6.47;4.23;;;3.40;99.90;;;;;;5013694;28;20440;-70
2021/04/24 01:40:14;;;;;;;10.23;4.40;;;3.40;99.90;;;;;;5006090;28;21099;-71
2021/04/24 01:42:40;;;;;;;6.73;4.20;;;3.30;99.90;;;;;;5004016;28;20918;-74
2021/04/24 01:45:08;;;;;;;8.33;3.70;;;3.30;99.90;;;;;;5005503;28;20450;-71
2021/04/24 01:47:35;;;;;;;8.27;3.97;;;3.30;99.90;;;;;;5008355;28;20446;-71
2021/04/24 01:50:01;;;;;;;14.23;4.80;;;3.30;99.90;;;;;;5018418;28;20550;-72
2021/04/24 01:52:34;;;;;;;7.40;3.33;;;3.30;99.90;;;;;;5014611;28;20525;-71
2021/04/24 01:54:59;;;;;;;8.00;4.03;;;3.30;99.90;;;;;;5009341;28;20235;-72
2021/04/24 01:57:25;;;;;;;8.37;3.90;;;3.20;99.90;;;;;;5009944;28;20418;-72
2021/04/24 01:59:50;;;;;;;8.53;3.20;;;3.20;99.90;;;;;;5005802;28;20273;-71
2021/04/24 02:02:16;;;;;;;3.80;3.37;;;3.20;99.90;;;;;;5005479;28;20184;-72
2021/04/24 02:04:41;;;;;;;10.00;3.57;;;3.10;99.90;;;;;;5006234;28;20194;-70
2021/04/24 02:07:12;;;;;;;6.47;3.50;;;3.10;99.90;;;;;;5008842;28;20684;-71
2021/04/24 02:09:38;;;;;;;5.60;3.53;;;3.10;99.90;;;;;;5020832;28;20236;-74
2021/04/24 02:12:12;;;;;;;7.07;4.13;;;3.10;99.90;;;;;;5016766;28;21129;-71
2021/04/24 02:14:45;;;;;;;6.47;4.27;;;3.00;99.90;;;;;;5018311;28;20206;-71
2021/04/24 02:17:19;;;;;;;6.90;3.83;;;3.00;99.90;;;;;;5018691;28;20864;-71
2021/04/24 02:19:46;;;;;;;8.97;4.00;;;3.00;99.90;;;;;;5021301;28;20528;-72
2021/04/24 02:22:12;;;;;;;4.23;3.73;;;3.00;99.90;;;;;;5016562;28;20488;-71
2021/04/24 02:24:47;;;;;;;11.07;3.40;;;2.90;99.90;;;;;;5018655;28;20438;-71
2021/04/24 02:27:13;;;;;;;3.73;3.43;;;2.90;99.90;;;;;;5015101;28;20183;-71
2021/04/24 02:29:43;;;;;;;5.00;3.33;;;2.90;99.90;;;;;;5016632;28;20496;-71
2021/04/24 02:32:10;;;;;;;3.63;3.13;;;2.90;99.90;;;;;;5017268;28;20226;-71
2021/04/24 02:34:40;;;;;;;5.13;3.93;;;2.80;99.90;;;;;;5014452;28;20484;-73
2021/04/24 02:37:07;;;;;;;6.40;3.80;;;2.80;99.90;;;;;;5019908;28;20416;-73
2021/04/24 02:39:35;;;;;;;5.10;3.77;;;2.70;99.90;;;;;;5009147;28;20434;-71
2021/04/24 02:42:03;;;;;;;4.23;3.40;;;2.70;99.90;;;;;;5013969;28;20446;-72
2021/04/24 02:44:28;;;;;;;5.87;3.77;;;2.70;99.90;;;;;;5020871;28;20921;-71
2021/04/24 02:46:56;;;;;;;9.33;3.20;;;2.70;99.90;;;;;;5021275;28;20451;-72
2021/04/24 02:49:21;;;;;;;6.73;3.50;;;2.60;99.90;;;;;;5017208;28;20685;-71
2021/04/24 02:51:47;;;;;;;4.67;3.50;;;2.60;99.90;;;;;;5011308;28;20438;-71
2021/04/24 02:54:13;;;;;;;6.50;4.20;;;2.60;99.90;;;;;;5006242;28;20701;-73
2021/04/24 02:56:38;;;;;;;11.50;3.97;;;2.50;99.90;;;;;;5016512;28;20241;-71
2021/04/24 02:59:04;;;;;;;5.40;3.50;;;2.60;99.90;;;;;;5015811;28;20199;-71
2021/04/24 03:01:30;;;;;;;5.70;4.10;;;2.50;99.90;;;;;;5017370;28;20260;-67
2021/04/24 03:03:55;;;;;;;6.50;3.80;;;2.50;99.90;;;;;;5013240;28;20182;-71
2021/04/24 03:06:21;;;;;;;6.30;4.57;;;2.50;99.90;;;;;;5020107;28;20217;-71
2021/04/24 03:08:46;;;;;;;5.70;4.30;;;2.50;99.90;;;;;;5016579;28;20202;-71
2021/04/24 03:11:12;;;;;;;4.37;3.83;;;2.40;99.90;;;;;;5020178;28;20242;-71
2021/04/24 03:13:37;;;;;;;5.40;3.83;;;2.40;99.90;;;;;;5012862;28;20269;-72
2021/04/24 03:16:03;;;;;;;7.60;4.20;;;2.40;99.90;;;;;;5013718;28;20188;-71
2021/04/24 03:18:28;;;;;;;7.77;4.03;;;2.30;99.90;;;;;;5017410;28;20571;-71
2021/04/24 03:20:54;;;;;;;10.20;4.80;;;2.30;99.90;;;;;;5014159;28;20186;-71
2021/04/24 03:23:20;;;;;;;6.70;5.00;;;2.30;99.90;;;;;;5019020;28;20183;-71
2021/04/24 03:25:45;;;;;;;8.63;3.93;;;2.30;99.90;;;;;;5020148;28;20664;-71
2021/04/24 03:28:11;;;;;;;6.17;4.30;;;2.30;99.90;;;;;;5012406;28;20218;-72
2021/04/24 03:30:36;;;;;;;7.83;4.20;;;2.30;99.90;;;;;;5015625;28;20187;-71
2021/04/24 03:33:02;;;;;;;11.77;4.60;;;2.20;99.90;;;;;;5018188;28;20189;-72
2021/04/24 03:35:28;;;;;;;5.93;4.17;;;2.20;99.90;;;;;;5016261;28;20207;-72
2021/04/24 03:37:53;;;;;;;12.60;4.23;;;2.10;99.90;;;;;;5022327;28;20207;-72
2021/04/24 03:40:19;;;;;;;6.00;4.10;;;2.10;99.90;;;;;;5015443;28;20317;-71
2021/04/24 03:42:44;;;;;;;9.60;4.90;;;2.10;99.90;;;;;;5014632;28;20274;-71
2021/04/24 03:45:21;;;;;;;9.43;4.13;;;2.10;99.90;;;;;;5018860;28;20261;-72
2021/04/24 03:47:52;;;;;;;6.23;4.30;;;2.10;99.90;;;;;;5014808;28;20182;-72
2021/04/24 03:50:19;;;;;;;7.17;4.20;;;2.10;99.90;;;;;;5010140;28;20900;-71
2021/04/24 03:52:44;;;;;;;9.17;4.83;;;2.10;99.90;;;;;;5017395;28;20509;-72
2021/04/24 03:55:11;;;;;;;7.27;4.20;;;2.00;99.90;;;;;;5017683;28;20473;-71
2021/04/24 03:57:37;;;;;;;8.60;4.30;;;2.00;99.90;;;;;;5018453;28;20196;-73
2021/04/24 04:00:06;;;;;;;7.60;4.90;;;2.00;99.90;;;;;;5023185;28;20449;-71
2021/04/24 04:02:56;;;;;;;6.07;3.93;;;2.00;99.90;;;;;;5017855;28;20193;-72
2021/04/24 04:05:22;;;;;;;9.20;4.43;;;2.00;99.90;;;;;;5021998;28;20465;-72
2021/04/24 04:07:47;;;;;;;5.77;3.60;;;1.90;99.90;;;;;;5020019;28;20439;-72
2021/04/24 04:10:15;;;;;;;7.77;4.17;;;1.90;99.90;;;;;;5017581;28;20482;-71
2021/04/24 04:12:41;;;;;;;11.57;4.80;;;1.90;99.90;;;;;;5020402;28;20674;-71
2021/04/24 04:15:08;;;;;;;8.80;5.03;;;1.90;99.90;;;;;;5021625;28;20479;-71
2021/04/24 04:17:35;;;;;;;7.37;4.20;;;1.90;99.90;;;;;;5017936;28;20202;-70
2021/04/24 04:20:01;;;;;;;9.43;5.33;;;1.90;99.90;;;;;;5017673;28;20824;-72
2021/04/24 04:22:26;;;;;;;10.13;5.00;;;1.90;99.90;;;;;;5020866;28;20537;-72
2021/04/24 04:24:52;;;;;;;9.97;4.67;;;1.90;99.90;;;;;;5016314;28;20202;-71
2021/04/24 04:27:17;;;;;;;10.20;5.40;;;1.90;99.90;;;;;;5017666;28;20187;-71
2021/04/24 04:29:43;;;;;;;15.20;6.10;;;1.90;99.90;;;;;;5024737;28;20347;-72
2021/04/24 04:32:09;;;;;;;7.70;5.50;;;1.90;99.90;;;;;;5016453;28;20188;-72
2021/04/24 04:34:34;;;;;;;6.37;5.40;;;1.90;99.90;;;;;;5034895;28;20249;-72
2021/04/24 04:37:00;;;;;;;8.23;5.03;;;1.90;99.90;;;;;;5009973;28;20262;-71
2021/04/24 04:39:26;;;;;;;9.00;4.30;;;1.90;99.90;;;;;;5021604;28;20209;-71
2021/04/24 04:41:51;;;;;;;9.03;4.37;;;2.00;99.90;;;;;;5020637;28;20445;-72
2021/04/24 04:44:17;;;;;;;9.73;5.10;;;2.00;99.90;;;;;;5020839;28;20210;-70
2021/04/24 04:46:42;;;;;;;8.37;5.17;;;2.10;99.90;;;;;;5020034;28;20200;-71
2021/04/24 04:49:08;;;;;;;11.53;4.80;;;2.10;99.90;;;;;;5017653;28;20676;-71
2021/04/24 04:51:33;;;;;;;19.57;6.13;;;2.20;99.90;;;;;;5023396;28;20740;-70
2021/04/24 04:53:59;;;;;;;12.60;6.83;;;2.20;99.90;;;;;;5019044;28;20205;-71
2021/04/24 04:56:25;;;;;;;18.10;7.27;;;2.40;99.90;;;;;;5017747;28;20194;-71
2021/04/24 04:58:51;;;;;;;12.37;7.57;;;2.50;99.90;;;;;;5022848;28;20445;-71
2021/04/24 05:01:18;;;;;;;10.90;5.97;;;2.60;99.90;;;;;;5021946;28;20189;-73
2021/04/24 05:03:43;;;;;;;8.13;5.20;;;2.70;99.90;;;;;;5016266;28;20183;-70
2021/04/24 05:06:09;;;;;;;13.83;5.43;;;2.80;99.90;;;;;;5023970;28;20475;-72
2021/04/24 05:08:36;;;;;;;13.80;6.90;;;3.00;99.90;;;;;;5011240;28;20210;-71
2021/04/24 05:11:05;;;;;;;7.30;5.43;;;3.10;99.90;;;;;;5018045;28;20673;-71
2021/04/24 05:13:31;;;;;;;10.17;4.90;;;3.20;99.90;;;;;;5010431;28;20947;-70
2021/04/24 05:15:56;;;;;;;9.33;4.40;;;3.40;99.90;;;;;;5020443;28;20433;-71
2021/04/24 05:18:22;;;;;;;7.60;4.60;;;3.80;99.90;;;;;;5015062;28;20219;-71
2021/04/24 05:20:48;;;;;;;10.93;5.63;;;4.40;99.90;;;;;;5014858;28;20194;-71
2021/04/24 05:23:13;;;;;;;10.90;5.00;;;5.20;99.90;;;;;;5011935;28;20179;-71
2021/04/24 05:25:39;;;;;;;7.00;3.77;;;6.40;99.90;;;;;;5009718;28;20272;-72
2021/04/24 05:28:05;;;;;;;9.53;5.43;;;8.20;99.90;;;;;;5014931;28;20183;-73
2021/04/24 05:30:31;;;;;;;6.30;4.77;;;9.90;99.90;;;;;;5013398;28;21059;-72
2021/04/24 05:32:58;;;;;;;8.73;5.70;;;11.20;99.90;;;;;;5013299;28;20198;-73
2021/04/24 05:35:24;;;;;;;9.47;6.37;;;12.10;99.90;;;;;;5012432;28;20213;-73
2021/04/24 05:37:50;;;;;;;13.20;6.60;;;13.00;99.90;;;;;;5013209;28;20520;-71
2021/04/24 05:40:15;;;;;;;14.90;7.33;;;13.70;99.90;;;;;;5017437;28;20877;-72
2021/04/24 05:42:41;;;;;;;9.10;5.83;;;14.40;99.90;;;;;;5016402;28;20179;-73
2021/04/24 05:45:11;;;;;;;8.73;6.33;;;14.90;99.90;;;;;;5020619;28;20178;-68
2021/04/24 05:47:40;;;;;;;11.33;6.57;;;15.70;99.90;;;;;;5017184;28;20445;-68
2021/04/24 05:50:07;;;;;;;9.20;7.60;;;16.00;99.90;;;;;;5017283;28;20512;-72
2021/04/24 05:52:33;;;;;;;8.30;6.57;;;17.10;99.90;;;;;;5016191;28;20460;-68
2021/04/24 05:54:59;;;;;;;10.60;6.57;;;17.10;99.30;;;;;;5020237;28;20496;-71
2021/04/24 05:57:24;;;;;;;8.17;6.80;;;17.80;98.10;;;;;;5015823;28;20468;-71
2021/04/24 05:59:50;;;;;;;9.43;6.90;;;17.50;98.10;;;;;;5012605;28;20248;-68
2021/04/24 06:02:16;;;;;;;9.40;6.60;;;17.70;97.10;;;;;;5014790;28;20693;-71
2021/04/24 06:04:41;;;;;;;8.30;6.60;;;18.40;96.60;;;;;;5008419;28;20206;-69
2021/04/24 06:07:07;;;;;;;11.00;6.63;;;18.40;95.80;;;;;;5011349;28;20426;-71
2021/04/24 06:09:34;;;;;;;10.37;6.33;;;18.40;95.30;;;;;;5012684;28;20634;-74
2021/04/24 06:12:00;;;;;;;11.50;7.10;;;18.90;94.80;;;;;;5009006;28;20192;-72
2021/04/24 06:14:26;;;;;;;16.13;7.70;;;19.40;94.10;;;;;;5013449;28;20846;-71
2021/04/24 06:16:51;;;;;;;8.87;7.30;;;18.90;93.80;;;;;;5012901;28;20206;-73
2021/04/24 06:19:17;;;;;;;13.80;8.87;;;18.40;94.20;;;;;;5014223;28;20214;-71
2021/04/24 06:21:42;;;;;;;15.53;7.30;;;17.90;94.10;;;;;;5016467;28;20189;-71
2021/04/24 06:24:08;;;;;;;14.40;8.13;;;17.60;95.20;;;;;;5017111;28;20205;-72
2021/04/24 06:26:34;;;;;;;11.37;6.93;;;17.20;95.00;;;;;;5015569;28;20201;-75
2021/04/24 06:28:59;;;;;;;14.77;8.20;;;16.80;96.20;;;;;;5013212;28;20233;-73
2021/04/24 06:31:25;;;;;;;15.00;8.70;;;16.50;95.90;;;;;;5018770;28;20549;-71
2021/04/24 06:33:50;;;;;;;10.17;7.10;;;15.90;96.30;;;;;;5010025;28;20260;-72
2021/04/24 06:36:17;;;;;;;15.53;7.90;;;15.60;96.90;;;;;;5010677;28;20527;-71
2021/04/24 06:38:44;;;;;;;24.17;9.03;;;15.70;97.00;;;;;;5017249;28;20225;-71
2021/04/24 06:41:10;;;;;;;15.33;6.83;;;15.40;96.60;;;;;;5016576;28;20845;-68
2021/04/24 06:43:35;;;;;;;12.60;8.53;;;15.40;97.10;;;;;;5010535;28;20445;-71
2021/04/24 06:46:01;;;;;;;11.40;7.40;;;15.50;96.80;;;;;;5016463;28;20189;-72
2021/04/24 06:48:26;;;;;;;12.37;7.50;;;15.20;96.40;;;;;;5019064;28;20197;-71
2021/04/24 06:50:52;;;;;;;14.83;8.40;;;15.30;96.90;;;;;;5014767;28;20193;-71
2021/04/24 06:53:18;;;;;;;13.97;8.60;;;15.30;97.10;;;;;;5020983;28;20198;-71
2021/04/24 06:55:43;;;;;;;20.97;8.40;;;15.30;97.10;;;;;;5015893;28;20216;-72
2021/04/24 06:58:09;;;;;;;20.20;9.13;;;15.60;97.30;;;;;;5016746;28;20196;-70
2021/04/24 07:00:35;;;;;;;14.40;8.63;;;15.70;96.90;;;;;;5019499;28;20256;-72
2021/04/24 07:03:01;;;;;;;15.37;8.80;;;15.70;96.00;;;;;;5017787;28;20186;-70
2021/04/24 07:05:26;;;;;;;24.73;9.50;;;16.00;96.20;;;;;;5021521;28;20189;-71
2021/04/24 07:07:52;;;;;;;18.23;8.17;;;15.80;96.60;;;;;;5013459;28;20198;-70
2021/04/24 07:10:18;;;;;;;17.23;8.80;;;16.00;96.80;;;;;;5015978;28;20205;-70
2021/04/24 07:12:46;;;;;;;16.33;8.93;;;16.00;96.20;;;;;;5013228;28;20193;-71
2021/04/24 07:15:12;;;;;;;18.50;8.97;;;15.90;97.10;;;;;;5016290;28;20475;-70
2021/04/24 07:17:37;;;;;;;11.60;8.10;;;16.50;97.80;;;;;;5019758;28;20431;-71
2021/04/24 07:20:05;;;;;;;15.47;8.63;;;17.00;96.60;;;;;;5014405;28;20472;-73
2021/04/24 07:22:30;;;;;;;16.17;8.70;;;17.10;95.10;;;;;;5014198;28;20186;-71
2021/04/24 07:24:56;;;;;;;18.30;8.97;;;17.40;96.70;;;;;;5016593;28;20790;-72
2021/04/24 07:27:21;;;;;;;15.60;9.57;;;17.40;95.80;;;;;;5014182;28;20191;-72
2021/04/24 07:29:47;;;;;;;14.10;8.87;;;17.50;95.60;;;;;;5018393;28;20300;-71
2021/04/24 07:32:12;;;;;;;16.33;8.47;;;17.40;95.40;;;;;;5016868;28;20186;-72
2021/04/24 07:34:38;;;;;;;14.00;8.80;;;17.50;95.70;;;;;;5014794;28;20222;-72
2021/04/24 07:37:03;;;;;;;18.73;9.70;;;17.70;95.40;;;;;;5019458;28;20675;-69
2021/04/24 07:39:29;;;;;;;15.40;10.03;;;17.40;95.10;;;;;;5024387;28;20198;-69
2021/04/24 07:41:55;;;;;;;15.23;9.53;;;17.70;95.90;;;;;;5020258;28;20190;-69
2021/04/24 07:44:23;;;;;;;12.63;9.30;;;18.20;95.80;;;;;;5020478;28;20183;-74
2021/04/24 07:46:49;;;;;;;16.57;9.17;;;18.30;94.40;;;;;;5020912;28;20193;-73
2021/04/24 07:49:14;;;;;;;22.40;9.43;;;18.40;93.30;;;;;;5023658;28;20945;-74
2021/04/24 07:51:40;;;;;;;13.10;8.93;;;18.40;93.10;;;;;;5023382;28;20272;-74
2021/04/24 07:54:06;;;;;;;16.87;9.20;;;18.70;93.20;;;;;;5016107;28;20314;-73
2021/04/24 07:56:31;;;;;;;19.87;9.23;;;19.00;93.90;;;;;;5023624;28;20651;-73
2021/04/24 07:58:57;;;;;;;16.43;9.50;;;19.10;92.60;;;;;;5017762;28;20496;-73
2021/04/24 08:01:22;;;;;;;16.33;8.57;;;19.20;93.30;;;;;;5023436;28;20229;-73
2021/04/24 08:03:48;;;;;;;15.53;8.40;;;18.90;92.30;;;;;;5018502;28;20241;-73
2021/04/24 08:06:13;;;;;;;11.60;8.00;;;19.20;92.20;;;;;;5023355;28;20702;-72
2021/04/24 08:08:39;;;;;;;12.53;8.40;;;19.60;93.40;;;;;;5022346;28;20203;-70
2021/04/24 08:11:04;;;;;;;17.30;8.60;;;19.60;90.10;;;;;;5019702;28;20185;-72
2021/04/24 08:13:30;;;;;;;16.13;7.80;;;19.70;90.30;;;;;;5016375;28;20182;-72
2021/04/24 08:15:55;;;;;;;19.83;8.43;;;19.60;89.10;;;;;;5013942;28;20214;-74
2021/04/24 08:18:21;;;;;;;11.53;7.90;;;19.90;90.70;;;;;;5024720;28;20297;-74
2021/04/24 08:20:47;;;;;;;14.03;8.07;;;20.10;89.50;;;;;;5016230;28;20333;-74
2021/04/24 08:23:12;;;;;;;12.73;6.93;;;20.00;88.60;;;;;;5024491;28;20178;-73
2021/04/24 08:25:38;;;;;;;11.50;7.80;;;20.30;86.10;;;;;;5014691;28;20202;-72
2021/04/24 08:28:03;;;;;;;10.73;7.00;;;20.30;85.60;;;;;;5012249;28;20275;-72
2021/04/24 08:30:30;;;;;;;12.70;8.10;;;20.60;87.60;;;;;;5014762;28;20263;-70
2021/04/24 08:32:57;;;;;;;12.13;8.83;;;20.50;86.40;;;;;;5014340;28;20214;-73
2021/04/24 08:35:22;;;;;;;12.33;7.40;;;20.60;82.90;;;;;;5020070;28;20469;-71
2021/04/24 08:37:48;;;;;;;12.13;7.37;;;20.50;82.20;;;;;;5017793;28;20539;-72
2021/04/24 08:40:15;;;;;;;10.50;7.70;;;20.70;80.40;;;;;;5019813;28;20688;-71
2021/04/24 08:42:41;;;;;;;9.50;7.70;;;20.50;80.00;;;;;;5017029;28;20175;-70
2021/04/24 08:45:14;;;;;;;10.40;8.23;;;20.70;83.80;;;;;;5019440;28;20526;-69
2021/04/24 08:47:49;;;;;;;9.23;6.93;;;20.80;80.50;;;;;;5011382;28;20441;-73
2021/04/24 08:50:18;;;;;;;13.00;8.50;;;20.80;77.50;;;;;;5017482;28;20451;-73
2021/04/24 08:52:44;;;;;;;10.87;8.17;;;20.80;78.90;;;;;;5020056;28;20661;-75
2021/04/24 08:55:16;;;;;;;12.13;7.10;;;20.90;81.50;;;;;;5020785;28;20492;-72
2021/04/24 08:57:42;;;;;;;12.70;7.80;;;21.20;81.00;;;;;;5017049;28;20433;-75
2021/04/24 09:00:09;;;;;;;11.07;7.27;;;21.00;76.80;;;;;;5016955;28;20539;-78
2021/04/24 09:02:35;;;;;;;13.50;7.30;;;21.20;79.60;;;;;;5019879;28;20433;-72
2021/04/24 09:05:01;;;;;;;9.93;7.13;;;21.30;83.90;;;;;;5011568;28;20433;-72
2021/04/24 09:07:26;;;;;;;11.43;7.80;;;21.20;77.20;;;;;;5023489;28;20421;-71
2021/04/24 09:09:59;;;;;;;12.50;8.07;;;21.30;78.60;;;;;;5019782;28;20206;-75
2021/04/24 09:12:35;;;;;;;9.20;7.43;;;21.50;78.90;;;;;;5015307;28;20207;-73
2021/04/24 09:15:30;;;;;;;20.03;7.83;;;21.60;74.90;;;;;;5019741;28;20469;-62
2021/04/24 09:18:06;;;;;;;12.67;9.03;;;21.60;76.30;;;;;;5023892;28;20412;-64
2021/04/24 09:20:53;;;;;;;14.23;10.17;;;21.80;76.20;;;;;;5021205;28;20436;-65
2021/04/24 09:23:28;;;;;;;11.77;8.50;;;21.90;75.50;;;;;;5013308;28;20456;-65
2021/04/24 09:26:06;;;;;;;14.23;10.20;;;22.20;76.20;;;;;;5018256;28;20436;-64
2021/04/24 09:28:35;;;;;;;13.10;8.30;;;21.90;75.00;;;;;;5013841;28;20453;-65
2021/04/24 09:31:13;;;;;;;11.77;8.77;;;22.20;80.00;;;;;;5023767;28;20421;-63
2021/04/24 09:33:40;;;;;;;13.83;9.23;;;22.30;73.70;;;;;;5018192;28;20471;-64
2021/04/24 09:36:08;;;;;;;14.30;8.90;;;22.40;74.30;;;;;;5018597;28;20520;-65
2021/04/24 09:38:36;;;;;;;15.90;9.00;;;23.10;73.20;;;;;;5022840;28;20598;-65
2021/04/24 09:41:34;;;;;;;19.47;9.40;;;23.60;76.20;;;;;;5020343;28;20425;-65
2021/04/24 09:44:31;;;;;;;11.07;8.97;;;24.00;73.00;;;;;;5015632;28;20481;-65
2021/04/24 09:46:56;;;;;;;12.97;8.80;;;23.70;70.90;;;;;;5012297;28;20957;-65
2021/04/24 09:49:28;;;;;;;14.65;9.30;;;23.60;68.40;;;;;;5019634;28;20423;-65
2021/04/24 09:52:02;;;;;;;11.83;9.00;;;23.20;68.30;;;;;;5021930;28;20206;-65
2021/04/24 09:54:34;;;;;;;15.43;8.87;;;23.80;69.20;;;;;;5015684;28;20885;-66
2021/04/24 09:57:02;;;;;;;13.40;9.37;;;24.30;71.00;;;;;;5015455;28;20464;-66
2021/04/24 09:59:29;;;;;;;14.20;7.67;;;24.80;72.40;;;;;;5019734;28;20468;-66
2021/04/24 10:02:06;;;;;;;9.97;7.30;;;25.10;69.40;;;;;;5022929;28;20412;-66
2021/04/24 10:04:32;;;;;;;13.87;7.87;;;25.80;69.50;;;;;;5015716;28;20433;-66
2021/04/24 10:06:57;;;;;;;15.63;8.17;;;26.00;67.60;;;;;;5019332;28;20425;-66
2021/04/24 10:09:32;;;;;;;10.67;7.90;;;26.40;63.00;;;;;;5020366;28;20194;-66
2021/04/24 10:12:00;;;;;;;10.57;8.03;;;25.90;64.20;;;;;;5018221;28;20573;-67
2021/04/24 10:14:48;;;;;;;11.53;8.50;;;26.00;63.60;;;;;;5018129;28;20551;-67
2021/04/24 10:17:19;;;;;;;9.90;7.43;;;26.00;63.30;;;;;;5018511;28;20425;-67
2021/04/24 10:19:46;;;;;;;14.00;8.77;;;26.10;61.10;;;;;;5019029;28;20453;-67
2021/04/24 10:22:17;;;;;;;11.67;8.37;;;26.10;61.30;;;;;;5019932;28;20787;-66
2021/04/24 10:24:43;;;;;;;10.60;7.87;;;25.80;59.10;;;;;;5019667;28;20434;-69
2021/04/24 10:27:11;;;;;;;13.80;8.40;;;25.50;59.20;;;;;;5021361;28;20432;-65
2021/04/24 10:29:37;;;;;;;9.80;7.97;;;25.70;63.60;;;;;;5016178;28;20450;-65
2021/04/24 10:32:03;;;;;;;13.87;8.53;;;26.10;61.10;;;;;;5017654;28;20518;-66
2021/04/24 10:34:29;;;;;;;10.53;8.27;;;26.20;63.30;;;;;;5019772;28;20491;-66
2021/04/24 10:36:55;;;;;;;13.23;8.40;;;25.50;59.50;;;;;;5014747;28;20902;-71
2021/04/24 10:39:25;;;;;;;11.50;8.87;;;25.50;61.10;;;;;;5004962;28;20197;-71
2021/04/24 10:41:54;;;;;;;12.40;9.00;;;26.00;61.10;;;;;;5021359;28;20511;-71
2021/04/24 10:44:20;;;;;;;14.57;8.63;;;25.40;58.80;;;;;;5020300;28;20812;-71
2021/04/24 10:46:48;;;;;;;13.50;9.80;;;24.70;59.90;;;;;;5018149;28;20425;-71
2021/04/24 10:49:19;;;;;;;10.40;8.00;;;24.80;59.40;;;;;;5020042;28;20445;-72
2021/04/24 10:51:51;;;;;;;13.30;8.47;;;25.30;59.50;;;;;;5021003;28;20429;-71
2021/04/24 10:54:17;;;;;;;18.07;9.40;;;25.50;59.90;;;;;;5021111;28;20462;-70
2021/04/24 10:56:43;;;;;;;10.07;7.80;;;25.50;59.30;;;;;;5017664;28;20472;-70
2021/04/24 10:59:22;;;;;;;12.40;8.93;;;25.10;57.70;;;;;;5021097;28;20665;-72
2021/04/24 11:02:13;;;;;;;10.60;8.50;;;24.60;57.90;;;;;;5019673;28;20178;-67
2021/04/24 11:04:39;;;;;;;14.10;9.20;;;24.40;60.70;;;;;;5022844;28;20494;-74
2021/04/24 11:07:19;;;;;;;8.87;7.17;;;24.00;60.00;;;;;;5022199;28;20425;-72
2021/04/24 11:10:05;;;;;;;15.37;11.00;;;24.20;59.30;;;;;;5022249;28;20484;-71
2021/04/24 11:12:34;;;;;;;16.27;8.63;;;24.10;57.90;;;;;;5017790;28;20432;-71
2021/04/24 11:15:02;;;;;;;16.23;9.17;;;24.20;60.50;;;;;;5020719;28;20514;-73
2021/04/24 11:17:30;;;;;;;8.50;7.57;;;24.50;59.90;;;;;;5018790;28;20508;-71
2021/04/24 11:19:55;;;;;;;13.90;8.87;;;24.10;58.10;;;;;;5025664;28;20909;-70
2021/04/24 11:22:41;;;;;;;14.33;9.40;;;23.70;58.70;;;;;;5021458;28;20474;-70
2021/04/24 11:25:15;;;;;;;16.43;8.87;;;23.30;56.70;;;;;;5020189;28;20214;-71
2021/04/24 11:28:07;;;;;;;12.23;7.80;;;23.30;58.50;;;;;;5024466;28;20426;-70
2021/04/24 11:30:58;;;;;;;17.03;10.13;;;23.20;59.70;;;;;;5018425;28;20494;-71
2021/04/24 11:33:32;;;;;;;13.27;8.50;;;22.90;56.50;;;;;;5023034;28;20508;-71
2021/04/24 11:36:23;;;;;;;10.57;8.23;;;22.90;59.10;;;;;;5025594;28;20518;-71
2021/04/24 11:39:00;;;;;;;10.83;7.10;;;23.10;59.20;;;;;;5020672;28;20515;-71
2021/04/24 11:41:27;;;;;;;10.43;8.50;;;23.00;60.90;;;;;;5024378;28;20447;-71
2021/04/24 11:43:53;;;;;;;11.47;8.33;;;23.00;57.90;;;;;;5025490;28;20420;-70
2021/04/24 11:46:33;;;;;;;9.80;7.80;;;22.50;58.50;;;;;;5023545;28;20498;-71
2021/04/24 11:49:08;;;;;;;8.43;7.53;;;22.60;62.10;;;;;;5017593;28;20506;-71
2021/04/24 11:52:07;;;;;;;9.77;7.10;;;22.90;61.10;;;;;;5019468;28;20433;-71
2021/04/24 11:54:42;;;;;;;17.20;8.33;;;22.90;60.70;;;;;;5022384;28;20482;-71
2021/04/24 11:57:17;;;;;;;14.13;9.07;;;22.70;58.30;;;;;;5019031;28;20429;-71
2021/04/24 11:59:43;;;;;;;13.37;8.73;;;22.20;60.70;;;;;;5024028;28;20439;-73
2021/04/24 12:02:22;;;;;;;17.30;8.43;;;22.10;57.20;;;;;;5022638;28;20433;-68
2021/04/24 12:04:50;;;;;;;15.27;8.20;;;21.90;56.70;;;;;;5023694;28;20421;-71
2021/04/24 12:07:17;;;;;;;14.57;6.97;;;21.50;56.60;;;;;;5016868;28;20437;-70
2021/04/24 12:09:51;;;;;;;11.93;8.47;;;21.30;55.90;;;;;;5021191;28;20538;-73
2021/04/24 12:12:21;;;;;;;17.03;8.27;;;21.30;56.80;;;;;;5016768;28;20429;-73
2021/04/24 12:14:48;;;;;;;9.83;7.67;;;21.40;57.50;;;;;;5026548;28;20468;-73
2021/04/24 12:17:16;;;;;;;10.00;7.27;;;21.60;56.70;;;;;;5025725;28;20449;-73
2021/04/24 12:19:45;;;;;;;13.93;7.93;;;21.70;56.70;;;;;;5022608;28;20986;-72
2021/04/24 12:22:21;;;;;;;12.40;7.97;;;21.70;56.50;;;;;;5023309;28;20435;-72
2021/04/24 12:24:53;;;;;;;13.13;9.07;;;21.30;55.30;;;;;;5019631;28;20518;-73
2021/04/24 12:27:26;;;;;;;15.93;8.47;;;21.00;54.90;;;;;;5021127;28;20842;-73
2021/04/24 12:29:52;;;;;;;11.07;8.10;;;20.70;56.40;;;;;;5020544;28;20475;-72
2021/04/24 12:32:20;;;;;;;12.33;7.80;;;20.80;58.00;;;;;;5022956;28;20422;-73
2021/04/24 12:34:45;;;;;;;10.03;7.60;;;20.80;57.60;;;;;;5015711;28;21069;-72
2021/04/24 12:37:15;;;;;;;13.07;8.17;;;20.90;56.80;;;;;;5026054;28;20520;-73
2021/04/24 12:39:41;;;;;;;13.93;7.20;;;20.90;56.90;;;;;;5018906;28;20206;-72
2021/04/24 12:42:10;;;;;;;12.30;7.47;;;20.80;56.70;;;;;;5019209;28;20443;-71
2021/04/24 12:44:36;;;;;;;8.70;6.83;;;20.70;54.80;;;;;;5021685;28;20523;-72
2021/04/24 12:47:01;;;;;;;11.95;8.02;;;20.70;56.40;;;;;;5021045;28;20904;-73
2021/04/24 12:49:28;;;;;;;13.70;8.13;;;20.90;58.10;;;;;;5019181;28;20198;-73